sensor_id;sensor_type;location;lat;lon;timestamp;P1;durP1;ratioP1;P2;durP2;ratioP2
79076;SDS011;68477;42.698;23.342;2023-05-07T00:01:52;24.33;;;13.25;;
79076;SDS011;68477;42.698;23.342;2023-05-07T00:04:18;17.92;;;11.15;;
79076;SDS011;68477;42.698;23.342;2023-05-07T00:06:43;22.05;;;12.88;;
79076;SDS011;68477;42.698;23.342;2023-05-07T00:09:09;19.48;;;12.27;;
79076;SDS011;68477;42.698;23.342;2023-05-07T00:11:34;19.27;;;12.10;;
79076;SDS011;68477;42.698;23.342;2023-05-07T00:14:00;17.48;;;11.68;;
79076;SDS011;68477;42.698;23.342;2023-05-07T00:16:25;18.42;;;12.23;;
79076;SDS011;68477;42.698;23.342;2023-05-07T00:18:50;22.23;;;11.40;;
79076;SDS011;68477;42.698;23.342;2023-05-07T00:21:16;20.40;;;11.57;;
79076;SDS011;68477;42.698;23.342;2023-05-07T00:23:42;20.85;;;12.38;;
79076;SDS011;68477;42.698;23.342;2023-05-07T00:26:07;19.88;;;11.15;;
79076;SDS011;68477;42.698;23.342;2023-05-07T00:28:33;21.88;;;12.35;;
79076;SDS011;68477;42.698;23.342;2023-05-07T00:30:58;21.05;;;12.70;;
79076;SDS011;68477;42.698;23.342;2023-05-07T00:33:24;25.88;;;11.68;;
79076;SDS011;68477;42.698;23.342;2023-05-07T00:35:51;17.45;;;12.25;;
79076;SDS011;68477;42.698;23.342;2023-05-07T00:38:17;21.92;;;12.25;;
79076;SDS011;68477;42.698;23.342;2023-05-07T00:40:42;20.85;;;12.25;;
79076;SDS011;68477;42.698;23.342;2023-05-07T00:43:08;20.35;;;11.90;;
79076;SDS011;68477;42.698;23.342;2023-05-07T00:45:33;18.40;;;11.50;;
79076;SDS011;68477;42.698;23.342;2023-05-07T00:47:59;20.60;;;12.77;;
79076;SDS011;68477;42.698;23.342;2023-05-07T00:50:29;20.70;;;12.02;;
79076;SDS011;68477;42.698;23.342;2023-05-07T00:52:55;19.20;;;11.88;;
79076;SDS011;68477;42.698;23.342;2023-05-07T00:55:22;29.08;;;11.73;;
79076;SDS011;68477;42.698;23.342;2023-05-07T00:57:48;17.35;;;11.82;;
79076;SDS011;68477;42.698;23.342;2023-05-07T01:00:16;15.82;;;10.82;;
79076;SDS011;68477;42.698;23.342;2023-05-07T01:02:42;19.73;;;11.45;;
79076;SDS011;68477;42.698;23.342;2023-05-07T01:05:08;20.80;;;11.32;;
79076;SDS011;68477;42.698;23.342;2023-05-07T01:07:36;16.70;;;10.65;;
79076;SDS011;68477;42.698;23.342;2023-05-07T01:10:04;17.90;;;10.40;;
79076;SDS011;68477;42.698;23.342;2023-05-07T01:12:33;19.13;;;10.35;;
79076;SDS011;68477;42.698;23.342;2023-05-07T01:15:00;18.45;;;11.52;;
79076;SDS011;68477;42.698;23.342;2023-05-07T01:17:26;16.75;;;10.30;;
79076;SDS011;68477;42.698;23.342;2023-05-07T01:19:52;15.93;;;10.32;;
79076;SDS011;68477;42.698;23.342;2023-05-07T01:22:24;14.85;;;10.70;;
79076;SDS011;68477;42.698;23.342;2023-05-07T01:24:54;16.90;;;10.70;;
79076;SDS011;68477;42.698;23.342;2023-05-07T01:27:21;19.30;;;11.00;;
79076;SDS011;68477;42.698;23.342;2023-05-07T01:29:46;15.68;;;9.70;;
79076;SDS011;68477;42.698;23.342;2023-05-07T01:32:12;19.55;;;9.73;;
79076;SDS011;68477;42.698;23.342;2023-05-07T01:34:38;13.98;;;8.95;;
79076;SDS011;68477;42.698;23.342;2023-05-07T01:37:05;15.93;;;9.52;;
79076;SDS011;68477;42.698;23.342;2023-05-07T01:39:31;11.93;;;8.32;;
79076;SDS011;68477;42.698;23.342;2023-05-07T01:41:57;13.75;;;8.95;;
79076;SDS011;68477;42.698;23.342;2023-05-07T01:44:24;12.52;;;8.30;;
79076;SDS011;68477;42.698;23.342;2023-05-07T01:46:50;13.50;;;8.98;;
79076;SDS011;68477;42.698;23.342;2023-05-07T01:49:16;13.07;;;8.35;;
79076;SDS011;68477;42.698;23.342;2023-05-07T01:51:42;15.48;;;8.80;;
79076;SDS011;68477;42.698;23.342;2023-05-07T01:54:09;15.18;;;9.27;;
79076;SDS011;68477;42.698;23.342;2023-05-07T01:56:34;10.20;;;6.95;;
79076;SDS011;68477;42.698;23.342;2023-05-07T01:59:00;13.13;;;7.43;;
79076;SDS011;68477;42.698;23.342;2023-05-07T02:01:26;12.25;;;6.97;;
79076;SDS011;68477;42.698;23.342;2023-05-07T02:03:52;11.88;;;7.35;;
79076;SDS011;68477;42.698;23.342;2023-05-07T02:06:18;11.25;;;6.57;;
79076;SDS011;68477;42.698;23.342;2023-05-07T02:08:44;13.32;;;6.93;;
79076;SDS011;68477;42.698;23.342;2023-05-07T02:11:10;11.70;;;6.60;;
79076;SDS011;68477;42.698;23.342;2023-05-07T02:13:35;10.90;;;6.60;;
79076;SDS011;68477;42.698;23.342;2023-05-07T02:16:01;11.10;;;6.53;;
79076;SDS011;68477;42.698;23.342;2023-05-07T02:18:27;9.05;;;5.70;;
79076;SDS011;68477;42.698;23.342;2023-05-07T02:20:53;11.20;;;7.07;;
79076;SDS011;68477;42.698;23.342;2023-05-07T02:23:18;10.48;;;7.22;;
79076;SDS011;68477;42.698;23.342;2023-05-07T02:25:43;12.15;;;6.35;;
79076;SDS011;68477;42.698;23.342;2023-05-07T02:28:09;11.90;;;6.95;;
79076;SDS011;68477;42.698;23.342;2023-05-07T02:30:35;9.88;;;6.45;;
79076;SDS011;68477;42.698;23.342;2023-05-07T02:33:02;13.07;;;6.90;;
79076;SDS011;68477;42.698;23.342;2023-05-07T02:35:27;10.07;;;6.97;;
79076;SDS011;68477;42.698;23.342;2023-05-07T02:37:53;11.40;;;7.35;;
79076;SDS011;68477;42.698;23.342;2023-05-07T02:40:18;10.88;;;7.40;;
79076;SDS011;68477;42.698;23.342;2023-05-07T02:42:44;11.60;;;7.65;;
79076;SDS011;68477;42.698;23.342;2023-05-07T02:45:09;14.23;;;7.75;;
79076;SDS011;68477;42.698;23.342;2023-05-07T02:47:35;11.73;;;7.82;;
79076;SDS011;68477;42.698;23.342;2023-05-07T02:50:00;13.43;;;7.88;;
79076;SDS011;68477;42.698;23.342;2023-05-07T02:52:26;12.23;;;7.50;;
79076;SDS011;68477;42.698;23.342;2023-05-07T02:54:51;12.70;;;8.65;;
79076;SDS011;68477;42.698;23.342;2023-05-07T02:57:17;14.00;;;8.68;;
79076;SDS011;68477;42.698;23.342;2023-05-07T02:59:42;14.20;;;8.82;;
79076;SDS011;68477;42.698;23.342;2023-05-07T03:02:08;14.27;;;8.50;;
79076;SDS011;68477;42.698;23.342;2023-05-07T03:04:34;13.13;;;8.50;;
79076;SDS011;68477;42.698;23.342;2023-05-07T03:06:59;13.77;;;8.73;;
79076;SDS011;68477;42.698;23.342;2023-05-07T03:09:25;14.48;;;9.00;;
79076;SDS011;68477;42.698;23.342;2023-05-07T03:11:51;18.33;;;9.27;;
79076;SDS011;68477;42.698;23.342;2023-05-07T03:14:16;13.15;;;8.55;;
79076;SDS011;68477;42.698;23.342;2023-05-07T03:16:41;12.35;;;8.23;;
79076;SDS011;68477;42.698;23.342;2023-05-07T03:19:07;12.90;;;9.25;;
79076;SDS011;68477;42.698;23.342;2023-05-07T03:21:32;13.20;;;8.55;;
79076;SDS011;68477;42.698;23.342;2023-05-07T03:23:59;15.02;;;9.30;;
79076;SDS011;68477;42.698;23.342;2023-05-07T03:26:25;16.00;;;9.43;;
79076;SDS011;68477;42.698;23.342;2023-05-07T03:28:50;14.95;;;8.98;;
79076;SDS011;68477;42.698;23.342;2023-05-07T03:31:16;14.32;;;9.98;;
79076;SDS011;68477;42.698;23.342;2023-05-07T03:33:54;14.27;;;8.93;;
79076;SDS011;68477;42.698;23.342;2023-05-07T03:36:21;17.73;;;11.27;;
79076;SDS011;68477;42.698;23.342;2023-05-07T03:38:48;13.38;;;9.30;;
79076;SDS011;68477;42.698;23.342;2023-05-07T03:41:14;14.68;;;9.45;;
79076;SDS011;68477;42.698;23.342;2023-05-07T03:43:40;16.05;;;9.48;;
79076;SDS011;68477;42.698;23.342;2023-05-07T03:46:05;14.27;;;9.38;;
79076;SDS011;68477;42.698;23.342;2023-05-07T03:48:31;13.10;;;9.57;;
79076;SDS011;68477;42.698;23.342;2023-05-07T03:50:59;15.50;;;9.85;;
79076;SDS011;68477;42.698;23.342;2023-05-07T03:53:25;18.83;;;9.57;;
79076;SDS011;68477;42.698;23.342;2023-05-07T03:55:50;17.90;;;10.10;;
79076;SDS011;68477;42.698;23.342;2023-05-07T03:58:16;16.98;;;10.15;;
79076;SDS011;68477;42.698;23.342;2023-05-07T04:00:41;13.63;;;9.10;;
79076;SDS011;68477;42.698;23.342;2023-05-07T04:03:07;15.32;;;9.85;;
79076;SDS011;68477;42.698;23.342;2023-05-07T04:05:32;19.08;;;10.55;;
79076;SDS011;68477;42.698;23.342;2023-05-07T04:08:00;15.73;;;9.57;;
79076;SDS011;68477;42.698;23.342;2023-05-07T04:10:26;19.02;;;10.00;;
79076;SDS011;68477;42.698;23.342;2023-05-07T04:12:53;17.38;;;9.80;;
79076;SDS011;68477;42.698;23.342;2023-05-07T04:15:18;15.95;;;9.05;;
79076;SDS011;68477;42.698;23.342;2023-05-07T04:17:44;15.32;;;10.32;;
79076;SDS011;68477;42.698;23.342;2023-05-07T04:20:10;17.33;;;9.00;;
79076;SDS011;68477;42.698;23.342;2023-05-07T04:22:39;13.55;;;8.68;;
79076;SDS011;68477;42.698;23.342;2023-05-07T04:25:05;16.00;;;9.75;;
79076;SDS011;68477;42.698;23.342;2023-05-07T04:27:34;14.05;;;10.02;;
79076;SDS011;68477;42.698;23.342;2023-05-07T04:30:00;16.73;;;9.05;;
79076;SDS011;68477;42.698;23.342;2023-05-07T04:32:25;14.77;;;9.57;;
79076;SDS011;68477;42.698;23.342;2023-05-07T04:34:51;16.20;;;9.75;;
79076;SDS011;68477;42.698;23.342;2023-05-07T04:37:17;15.40;;;10.30;;
79076;SDS011;68477;42.698;23.342;2023-05-07T04:39:42;18.10;;;11.55;;
79076;SDS011;68477;42.698;23.342;2023-05-07T04:42:08;18.38;;;12.52;;
79076;SDS011;68477;42.698;23.342;2023-05-07T04:44:34;21.70;;;14.38;;
79076;SDS011;68477;42.698;23.342;2023-05-07T04:47:00;21.88;;;13.70;;
79076;SDS011;68477;42.698;23.342;2023-05-07T04:49:25;25.58;;;15.80;;
79076;SDS011;68477;42.698;23.342;2023-05-07T04:51:51;22.40;;;14.82;;
79076;SDS011;68477;42.698;23.342;2023-05-07T04:54:16;24.65;;;15.88;;
79076;SDS011;68477;42.698;23.342;2023-05-07T04:56:41;19.42;;;13.85;;
79076;SDS011;68477;42.698;23.342;2023-05-07T04:59:07;20.13;;;11.50;;
79076;SDS011;68477;42.698;23.342;2023-05-07T05:01:32;18.92;;;11.88;;
79076;SDS011;68477;42.698;23.342;2023-05-07T05:03:58;18.48;;;10.90;;
79076;SDS011;68477;42.698;23.342;2023-05-07T05:06:25;16.15;;;10.30;;
79076;SDS011;68477;42.698;23.342;2023-05-07T05:08:51;14.77;;;9.43;;
79076;SDS011;68477;42.698;23.342;2023-05-07T05:11:17;16.58;;;9.95;;
79076;SDS011;68477;42.698;23.342;2023-05-07T05:13:42;14.55;;;9.27;;
79076;SDS011;68477;42.698;23.342;2023-05-07T05:16:08;17.75;;;9.48;;
79076;SDS011;68477;42.698;23.342;2023-05-07T05:18:34;14.88;;;9.57;;
79076;SDS011;68477;42.698;23.342;2023-05-07T05:20:59;14.45;;;9.20;;
79076;SDS011;68477;42.698;23.342;2023-05-07T05:23:25;16.35;;;9.32;;
79076;SDS011;68477;42.698;23.342;2023-05-07T05:25:50;14.15;;;9.25;;
79076;SDS011;68477;42.698;23.342;2023-05-07T05:28:20;16.30;;;9.50;;
79076;SDS011;68477;42.698;23.342;2023-05-07T05:30:46;17.20;;;9.63;;
79076;SDS011;68477;42.698;23.342;2023-05-07T05:33:11;15.35;;;9.18;;
79076;SDS011;68477;42.698;23.342;2023-05-07T05:35:37;19.00;;;9.68;;
79076;SDS011;68477;42.698;23.342;2023-05-07T05:38:02;16.25;;;9.88;;
79076;SDS011;68477;42.698;23.342;2023-05-07T05:40:28;16.15;;;10.15;;
79076;SDS011;68477;42.698;23.342;2023-05-07T05:42:53;11.82;;;8.25;;
79076;SDS011;68477;42.698;23.342;2023-05-07T05:45:19;14.95;;;8.95;;
79076;SDS011;68477;42.698;23.342;2023-05-07T05:47:44;18.05;;;9.82;;
79076;SDS011;68477;42.698;23.342;2023-05-07T05:50:10;17.35;;;10.95;;
79076;SDS011;68477;42.698;23.342;2023-05-07T05:52:35;14.65;;;9.85;;
79076;SDS011;68477;42.698;23.342;2023-05-07T05:55:01;15.30;;;9.43;;
79076;SDS011;68477;42.698;23.342;2023-05-07T05:57:26;15.35;;;9.88;;
79076;SDS011;68477;42.698;23.342;2023-05-07T05:59:52;16.85;;;9.50;;
79076;SDS011;68477;42.698;23.342;2023-05-07T06:02:17;12.93;;;9.20;;
79076;SDS011;68477;42.698;23.342;2023-05-07T06:04:42;17.83;;;9.57;;
79076;SDS011;68477;42.698;23.342;2023-05-07T06:07:08;15.43;;;10.00;;
79076;SDS011;68477;42.698;23.342;2023-05-07T06:09:33;18.33;;;10.30;;
79076;SDS011;68477;42.698;23.342;2023-05-07T06:11:59;19.48;;;10.07;;
79076;SDS011;68477;42.698;23.342;2023-05-07T06:14:25;14.38;;;9.30;;
79076;SDS011;68477;42.698;23.342;2023-05-07T06:16:50;15.93;;;10.00;;
79076;SDS011;68477;42.698;23.342;2023-05-07T06:19:15;14.88;;;9.00;;
79076;SDS011;68477;42.698;23.342;2023-05-07T06:21:43;15.57;;;10.50;;
79076;SDS011;68477;42.698;23.342;2023-05-07T06:24:08;16.80;;;10.25;;
79076;SDS011;68477;42.698;23.342;2023-05-07T06:26:34;15.38;;;9.93;;
79076;SDS011;68477;42.698;23.342;2023-05-07T06:28:59;12.85;;;8.93;;
79076;SDS011;68477;42.698;23.342;2023-05-07T06:31:28;15.10;;;9.38;;
79076;SDS011;68477;42.698;23.342;2023-05-07T06:33:55;14.50;;;8.95;;
79076;SDS011;68477;42.698;23.342;2023-05-07T06:36:21;19.08;;;9.70;;
79076;SDS011;68477;42.698;23.342;2023-05-07T06:38:46;16.75;;;9.40;;
79076;SDS011;68477;42.698;23.342;2023-05-07T06:41:12;15.95;;;9.95;;
79076;SDS011;68477;42.698;23.342;2023-05-07T06:43:37;16.88;;;9.25;;
79076;SDS011;68477;42.698;23.342;2023-05-07T06:46:02;17.55;;;10.88;;
79076;SDS011;68477;42.698;23.342;2023-05-07T06:48:28;16.00;;;9.88;;
79076;SDS011;68477;42.698;23.342;2023-05-07T06:50:53;16.42;;;9.70;;
79076;SDS011;68477;42.698;23.342;2023-05-07T06:53:20;17.20;;;9.98;;
79076;SDS011;68477;42.698;23.342;2023-05-07T06:55:46;13.15;;;9.05;;
79076;SDS011;68477;42.698;23.342;2023-05-07T06:58:11;14.57;;;9.40;;
79076;SDS011;68477;42.698;23.342;2023-05-07T07:00:37;16.38;;;9.38;;
79076;SDS011;68477;42.698;23.342;2023-05-07T07:03:02;17.05;;;10.35;;
79076;SDS011;68477;42.698;23.342;2023-05-07T07:05:28;17.33;;;10.88;;
79076;SDS011;68477;42.698;23.342;2023-05-07T07:07:53;16.10;;;9.23;;
79076;SDS011;68477;42.698;23.342;2023-05-07T07:10:19;18.73;;;9.50;;
79076;SDS011;68477;42.698;23.342;2023-05-07T07:12:45;17.40;;;9.98;;
79076;SDS011;68477;42.698;23.342;2023-05-07T07:15:11;15.05;;;8.75;;
79076;SDS011;68477;42.698;23.342;2023-05-07T07:17:36;15.02;;;10.02;;
79076;SDS011;68477;42.698;23.342;2023-05-07T07:20:02;13.63;;;9.80;;
79076;SDS011;68477;42.698;23.342;2023-05-07T07:22:28;16.08;;;10.15;;
79076;SDS011;68477;42.698;23.342;2023-05-07T07:24:54;13.13;;;9.23;;
79076;SDS011;68477;42.698;23.342;2023-05-07T07:27:19;16.98;;;9.20;;
79076;SDS011;68477;42.698;23.342;2023-05-07T07:29:44;13.38;;;9.05;;
79076;SDS011;68477;42.698;23.342;2023-05-07T07:32:10;13.15;;;8.50;;
79076;SDS011;68477;42.698;23.342;2023-05-07T07:34:35;15.10;;;8.45;;
79076;SDS011;68477;42.698;23.342;2023-05-07T07:37:01;16.98;;;9.75;;
79076;SDS011;68477;42.698;23.342;2023-05-07T07:39:30;16.52;;;9.40;;
79076;SDS011;68477;42.698;23.342;2023-05-07T07:41:56;12.07;;;8.10;;
79076;SDS011;68477;42.698;23.342;2023-05-07T07:44:21;16.17;;;8.52;;
79076;SDS011;68477;42.698;23.342;2023-05-07T07:46:47;13.93;;;8.75;;
79076;SDS011;68477;42.698;23.342;2023-05-07T07:49:12;13.45;;;8.88;;
79076;SDS011;68477;42.698;23.342;2023-05-07T07:51:38;14.13;;;9.05;;
79076;SDS011;68477;42.698;23.342;2023-05-07T07:54:03;12.23;;;9.15;;
79076;SDS011;68477;42.698;23.342;2023-05-07T07:56:29;14.60;;;7.72;;
79076;SDS011;68477;42.698;23.342;2023-05-07T07:58:54;11.38;;;7.53;;
79076;SDS011;68477;42.698;23.342;2023-05-07T08:01:20;12.18;;;7.85;;
79076;SDS011;68477;42.698;23.342;2023-05-07T08:03:45;11.60;;;8.27;;
79076;SDS011;68477;42.698;23.342;2023-05-07T08:06:11;15.93;;;9.35;;
79076;SDS011;68477;42.698;23.342;2023-05-07T08:08:36;16.13;;;9.10;;
79076;SDS011;68477;42.698;23.342;2023-05-07T08:11:01;11.50;;;7.28;;
79076;SDS011;68477;42.698;23.342;2023-05-07T08:13:27;18.10;;;9.25;;
79076;SDS011;68477;42.698;23.342;2023-05-07T08:15:52;12.05;;;8.30;;
79076;SDS011;68477;42.698;23.342;2023-05-07T08:18:18;12.93;;;7.80;;
79076;SDS011;68477;42.698;23.342;2023-05-07T08:20:43;13.20;;;7.57;;
79076;SDS011;68477;42.698;23.342;2023-05-07T08:23:09;10.43;;;7.82;;
79076;SDS011;68477;42.698;23.342;2023-05-07T08:25:34;13.93;;;7.85;;
79076;SDS011;68477;42.698;23.342;2023-05-07T08:28:00;11.18;;;7.45;;
79076;SDS011;68477;42.698;23.342;2023-05-07T08:30:26;11.88;;;6.93;;
79076;SDS011;68477;42.698;23.342;2023-05-07T08:32:51;10.13;;;7.25;;
79076;SDS011;68477;42.698;23.342;2023-05-07T08:35:17;13.70;;;7.75;;
79076;SDS011;68477;42.698;23.342;2023-05-07T08:37:42;11.77;;;7.22;;
79076;SDS011;68477;42.698;23.342;2023-05-07T08:40:09;13.02;;;7.55;;
79076;SDS011;68477;42.698;23.342;2023-05-07T08:42:35;14.63;;;8.93;;
79076;SDS011;68477;42.698;23.342;2023-05-07T08:45:05;16.00;;;9.25;;
79076;SDS011;68477;42.698;23.342;2023-05-07T08:47:46;13.30;;;8.02;;
79076;SDS011;68477;42.698;23.342;2023-05-07T08:50:12;12.60;;;7.78;;
79076;SDS011;68477;42.698;23.342;2023-05-07T08:52:38;10.68;;;7.43;;
79076;SDS011;68477;42.698;23.342;2023-05-07T08:55:05;12.43;;;6.85;;
79076;SDS011;68477;42.698;23.342;2023-05-07T08:57:32;11.68;;;7.25;;
79076;SDS011;68477;42.698;23.342;2023-05-07T08:59:58;11.77;;;6.65;;
79076;SDS011;68477;42.698;23.342;2023-05-07T09:02:23;11.77;;;6.22;;
79076;SDS011;68477;42.698;23.342;2023-05-07T09:04:49;14.85;;;6.97;;
79076;SDS011;68477;42.698;23.342;2023-05-07T09:07:14;6.78;;;4.97;;
79076;SDS011;68477;42.698;23.342;2023-05-07T09:09:40;9.32;;;5.03;;
79076;SDS011;68477;42.698;23.342;2023-05-07T09:12:05;10.23;;;5.15;;
79076;SDS011;68477;42.698;23.342;2023-05-07T09:14:32;9.80;;;5.70;;
79076;SDS011;68477;42.698;23.342;2023-05-07T09:16:58;9.73;;;6.55;;
79076;SDS011;68477;42.698;23.342;2023-05-07T09:19:24;9.93;;;5.50;;
79076;SDS011;68477;42.698;23.342;2023-05-07T09:21:50;8.75;;;6.03;;
79076;SDS011;68477;42.698;23.342;2023-05-07T09:24:23;9.98;;;6.43;;
79076;SDS011;68477;42.698;23.342;2023-05-07T09:26:49;10.20;;;5.40;;
79076;SDS011;68477;42.698;23.342;2023-05-07T09:29:15;7.85;;;4.90;;
79076;SDS011;68477;42.698;23.342;2023-05-07T09:31:41;7.07;;;4.28;;
79076;SDS011;68477;42.698;23.342;2023-05-07T09:34:07;6.47;;;4.35;;
79076;SDS011;68477;42.698;23.342;2023-05-07T09:36:33;5.95;;;4.25;;
79076;SDS011;68477;42.698;23.342;2023-05-07T09:39:01;6.50;;;4.15;;
79076;SDS011;68477;42.698;23.342;2023-05-07T09:41:27;8.68;;;4.68;;
79076;SDS011;68477;42.698;23.342;2023-05-07T09:43:55;15.40;;;5.10;;
79076;SDS011;68477;42.698;23.342;2023-05-07T09:46:25;7.60;;;4.80;;
79076;SDS011;68477;42.698;23.342;2023-05-07T09:48:55;8.57;;;4.45;;
79076;SDS011;68477;42.698;23.342;2023-05-07T09:51:28;8.43;;;4.53;;
79076;SDS011;68477;42.698;23.342;2023-05-07T09:53:55;8.90;;;4.32;;
79076;SDS011;68477;42.698;23.342;2023-05-07T09:56:22;6.28;;;4.07;;
79076;SDS011;68477;42.698;23.342;2023-05-07T09:58:48;7.60;;;4.50;;
79076;SDS011;68477;42.698;23.342;2023-05-07T10:01:16;9.05;;;4.38;;
79076;SDS011;68477;42.698;23.342;2023-05-07T10:03:44;7.32;;;4.22;;
79076;SDS011;68477;42.698;23.342;2023-05-07T10:06:10;5.75;;;4.47;;
79076;SDS011;68477;42.698;23.342;2023-05-07T10:08:38;6.72;;;4.10;;
79076;SDS011;68477;42.698;23.342;2023-05-07T10:11:05;5.03;;;3.80;;
79076;SDS011;68477;42.698;23.342;2023-05-07T10:13:31;5.90;;;3.85;;
79076;SDS011;68477;42.698;23.342;2023-05-07T10:15:59;7.00;;;4.07;;
79076;SDS011;68477;42.698;23.342;2023-05-07T10:18:25;6.03;;;4.20;;
79076;SDS011;68477;42.698;23.342;2023-05-07T10:20:54;8.13;;;4.38;;
79076;SDS011;68477;42.698;23.342;2023-05-07T10:23:26;5.72;;;3.20;;
79076;SDS011;68477;42.698;23.342;2023-05-07T10:25:52;9.32;;;4.57;;
79076;SDS011;68477;42.698;23.342;2023-05-07T10:28:19;5.00;;;3.90;;
79076;SDS011;68477;42.698;23.342;2023-05-07T10:33:41;4.43;;;3.55;;
79076;SDS011;68477;42.698;23.342;2023-05-07T10:36:10;8.93;;;4.35;;
79076;SDS011;68477;42.698;23.342;2023-05-07T10:38:36;5.40;;;3.70;;
79076;SDS011;68477;42.698;23.342;2023-05-07T10:41:01;5.03;;;3.80;;
79076;SDS011;68477;42.698;23.342;2023-05-07T10:43:40;6.43;;;3.58;;
79076;SDS011;68477;42.698;23.342;2023-05-07T10:46:10;5.07;;;3.45;;
79076;SDS011;68477;42.698;23.342;2023-05-07T10:51:28;5.85;;;3.58;;
79076;SDS011;68477;42.698;23.342;2023-05-07T10:56:36;5.63;;;3.75;;
79076;SDS011;68477;42.698;23.342;2023-05-07T10:59:36;6.32;;;3.60;;
79076;SDS011;68477;42.698;23.342;2023-05-07T11:02:02;9.05;;;3.70;;
79076;SDS011;68477;42.698;23.342;2023-05-07T11:04:31;6.05;;;4.00;;
79076;SDS011;68477;42.698;23.342;2023-05-07T11:15:05;8.35;;;3.45;;
79076;SDS011;68477;42.698;23.342;2023-05-07T11:17:35;4.82;;;3.80;;
79076;SDS011;68477;42.698;23.342;2023-05-07T11:20:17;7.10;;;4.47;;
79076;SDS011;68477;42.698;23.342;2023-05-07T11:22:43;5.55;;;3.47;;
79076;SDS011;68477;42.698;23.342;2023-05-07T11:25:09;6.88;;;3.33;;
79076;SDS011;68477;42.698;23.342;2023-05-07T11:27:34;6.88;;;3.38;;
79076;SDS011;68477;42.698;23.342;2023-05-07T11:30:00;5.70;;;3.40;;
79076;SDS011;68477;42.698;23.342;2023-05-07T11:32:30;6.35;;;3.30;;
79076;SDS011;68477;42.698;23.342;2023-05-07T11:34:58;6.60;;;3.60;;
79076;SDS011;68477;42.698;23.342;2023-05-07T11:37:25;6.57;;;3.05;;
79076;SDS011;68477;42.698;23.342;2023-05-07T11:40:01;3.55;;;2.75;;
79076;SDS011;68477;42.698;23.342;2023-05-07T11:42:37;5.88;;;3.97;;
79076;SDS011;68477;42.698;23.342;2023-05-07T11:45:04;6.47;;;3.05;;
79076;SDS011;68477;42.698;23.342;2023-05-07T11:47:31;8.68;;;6.82;;
79076;SDS011;68477;42.698;23.342;2023-05-07T11:50:01;5.22;;;3.58;;
79076;SDS011;68477;42.698;23.342;2023-05-07T11:52:29;10.27;;;3.90;;
79076;SDS011;68477;42.698;23.342;2023-05-07T11:54:55;6.40;;;3.80;;
79076;SDS011;68477;42.698;23.342;2023-05-07T11:57:23;4.90;;;3.88;;
79076;SDS011;68477;42.698;23.342;2023-05-07T11:59:56;4.20;;;3.22;;
79076;SDS011;68477;42.698;23.342;2023-05-07T12:02:22;8.38;;;4.10;;
79076;SDS011;68477;42.698;23.342;2023-05-07T12:04:49;5.97;;;3.33;;
79076;SDS011;68477;42.698;23.342;2023-05-07T12:07:16;4.82;;;3.28;;
79076;SDS011;68477;42.698;23.342;2023-05-07T12:09:42;6.55;;;3.38;;
79076;SDS011;68477;42.698;23.342;2023-05-07T12:12:08;5.22;;;3.33;;
79076;SDS011;68477;42.698;23.342;2023-05-07T12:14:40;7.40;;;3.20;;
79076;SDS011;68477;42.698;23.342;2023-05-07T12:17:07;5.47;;;2.92;;
79076;SDS011;68477;42.698;23.342;2023-05-07T12:19:34;5.20;;;3.47;;
79076;SDS011;68477;42.698;23.342;2023-05-07T12:22:00;4.20;;;3.10;;
79076;SDS011;68477;42.698;23.342;2023-05-07T12:24:27;4.38;;;3.38;;
79076;SDS011;68477;42.698;23.342;2023-05-07T12:26:53;4.15;;;2.55;;
79076;SDS011;68477;42.698;23.342;2023-05-07T12:29:21;4.40;;;2.55;;
79076;SDS011;68477;42.698;23.342;2023-05-07T12:31:47;3.97;;;2.60;;
79076;SDS011;68477;42.698;23.342;2023-05-07T12:34:15;7.85;;;3.00;;
79076;SDS011;68477;42.698;23.342;2023-05-07T12:36:40;5.03;;;2.85;;
79076;SDS011;68477;42.698;23.342;2023-05-07T12:39:06;3.50;;;2.78;;
79076;SDS011;68477;42.698;23.342;2023-05-07T12:41:52;5.03;;;3.03;;
79076;SDS011;68477;42.698;23.342;2023-05-07T12:44:22;5.45;;;2.63;;
79076;SDS011;68477;42.698;23.342;2023-05-07T12:46:49;4.32;;;2.55;;
79076;SDS011;68477;42.698;23.342;2023-05-07T12:49:14;3.53;;;2.53;;
79076;SDS011;68477;42.698;23.342;2023-05-07T12:51:40;4.13;;;2.72;;
79076;SDS011;68477;42.698;23.342;2023-05-07T12:54:05;4.75;;;2.92;;
79076;SDS011;68477;42.698;23.342;2023-05-07T12:56:31;4.95;;;2.80;;
79076;SDS011;68477;42.698;23.342;2023-05-07T12:58:57;4.53;;;3.38;;
79076;SDS011;68477;42.698;23.342;2023-05-07T13:01:28;3.72;;;2.70;;
79076;SDS011;68477;42.698;23.342;2023-05-07T13:04:02;4.00;;;2.92;;
79076;SDS011;68477;42.698;23.342;2023-05-07T13:06:31;4.10;;;2.70;;
79076;SDS011;68477;42.698;23.342;2023-05-07T13:08:57;4.47;;;2.40;;
79076;SDS011;68477;42.698;23.342;2023-05-07T13:11:22;4.22;;;2.70;;
79076;SDS011;68477;42.698;23.342;2023-05-07T13:13:48;10.23;;;4.85;;
79076;SDS011;68477;42.698;23.342;2023-05-07T13:16:13;5.30;;;3.08;;
79076;SDS011;68477;42.698;23.342;2023-05-07T13:18:39;3.53;;;2.72;;
79076;SDS011;68477;42.698;23.342;2023-05-07T13:21:05;5.32;;;2.92;;
79076;SDS011;68477;42.698;23.342;2023-05-07T13:23:31;4.45;;;2.95;;
79076;SDS011;68477;42.698;23.342;2023-05-07T13:25:56;3.55;;;2.70;;
79076;SDS011;68477;42.698;23.342;2023-05-07T13:28:25;4.25;;;2.75;;
79076;SDS011;68477;42.698;23.342;2023-05-07T13:30:51;3.90;;;2.60;;
79076;SDS011;68477;42.698;23.342;2023-05-07T13:33:18;6.28;;;3.15;;
79076;SDS011;68477;42.698;23.342;2023-05-07T13:35:44;3.83;;;3.17;;
79076;SDS011;68477;42.698;23.342;2023-05-07T13:38:09;5.65;;;3.33;;
79076;SDS011;68477;42.698;23.342;2023-05-07T13:40:35;5.28;;;3.78;;
79076;SDS011;68477;42.698;23.342;2023-05-07T13:43:00;4.70;;;3.03;;
79076;SDS011;68477;42.698;23.342;2023-05-07T13:45:30;8.73;;;2.90;;
79076;SDS011;68477;42.698;23.342;2023-05-07T13:47:56;4.55;;;2.90;;
79076;SDS011;68477;42.698;23.342;2023-05-07T13:50:22;4.30;;;3.30;;
79076;SDS011;68477;42.698;23.342;2023-05-07T13:52:48;4.40;;;2.78;;
79076;SDS011;68477;42.698;23.342;2023-05-07T13:55:18;5.82;;;2.75;;
79076;SDS011;68477;42.698;23.342;2023-05-07T13:57:44;4.93;;;3.08;;
79076;SDS011;68477;42.698;23.342;2023-05-07T14:00:10;5.60;;;2.95;;
79076;SDS011;68477;42.698;23.342;2023-05-07T14:02:36;3.42;;;2.60;;
79076;SDS011;68477;42.698;23.342;2023-05-07T14:05:01;3.58;;;2.80;;
79076;SDS011;68477;42.698;23.342;2023-05-07T14:07:27;4.85;;;3.13;;
79076;SDS011;68477;42.698;23.342;2023-05-07T14:09:53;8.35;;;3.35;;
79076;SDS011;68477;42.698;23.342;2023-05-07T14:12:19;5.25;;;3.17;;
79076;SDS011;68477;42.698;23.342;2023-05-07T14:14:44;5.40;;;2.85;;
79076;SDS011;68477;42.698;23.342;2023-05-07T14:17:11;4.47;;;2.90;;
79076;SDS011;68477;42.698;23.342;2023-05-07T14:19:37;3.58;;;2.80;;
79076;SDS011;68477;42.698;23.342;2023-05-07T14:22:03;6.63;;;3.00;;
79076;SDS011;68477;42.698;23.342;2023-05-07T14:24:28;4.78;;;3.28;;
79076;SDS011;68477;42.698;23.342;2023-05-07T14:26:53;4.13;;;2.90;;
79076;SDS011;68477;42.698;23.342;2023-05-07T14:29:19;4.28;;;2.90;;
79076;SDS011;68477;42.698;23.342;2023-05-07T14:31:45;4.82;;;2.90;;
79076;SDS011;68477;42.698;23.342;2023-05-07T14:34:11;5.38;;;3.00;;
79076;SDS011;68477;42.698;23.342;2023-05-07T14:36:36;6.45;;;2.85;;